Unalaska, AK (99685)

5:19 PM AKDT on July 25, 2016 (GMT -0800)
Dutch Harbor | | Change Station

Elev 13 ft 53.90 °N, 166.54 °W | Updated 23 minutes ago

Partly Cloudy
Partly Cloudy
57 °F
Feels Like 57 °F
N
14
Wind Variable Wind from North
Gusts 18 mph

Today
High -- | Low -- °F
--% Chance of Precip.
Yesterday
High -- | Low -- °F
Precip. -- in
Pressure 29.82 in
Visibility 10.0 miles
Clouds Few 1200 ft
Few 8000 ft
Dew Point 46 °F
Humidity 67%
Rainfall 0.00 in
Snow Depth Not available.
7:10 AM 11:15 PM
Waning Gibbous, 60% visible
METAR PADU 260056Z 36012G16KT 10SM FEW012 FEW080 14/08 A2981 RMK AO2 SLP096 ACSL NE E MH T01390078
Pressure 29.82 in
Visibility 10.0 miles
Clouds Few 1200 ft
Few 8000 ft
Dew Point 46 °F
Humidity 67%
Rainfall 0.00 in
Snow Depth Not available.
7:10 AM 11:15 PM
Waning Gibbous, 60% visible
METAR PADU 260056Z 36012G16KT 10SM FEW012 FEW080 14/08 A2981 RMK AO2 SLP096 ACSL NE E MH T01390078

10-Day Weather Forecast

Almanac

Astronomy

Jul. 25, 2016 Rise Set
Actual Time
Civil Twilight
Nautical Twilight
Astronomical Twilight
Moon
Length of Visible Light
Length of Day
Tomorrow will be .
, % of the Moon is Illuminated

Today's Extremes

State Highs State Lows

Community

WunderPhotos

Upload Photos

1,927,484 photos uploaded!

WunderBlog® & News

Nearby

Air Quality

  Air Quality AQ Index Pollutant
Not available.

Snow Depth

Station Depth Elevation

Earthquake Activity

City Distance Mag. Time & Date
Minimum magnitude displayed is 2.5.

Coastal Water Temperatures

Place Temperature

Stations

Nearby Weather Stations

Station Location Temp. Windchill Dew Point Humidity Wind Precip. Elev Updated Type
                   

Watches & Warnings

There are currently no watches in effect.